Time;durP1;ratioP1;P1;durP2;ratioP2;P2;SDS_P1;SDS_P2;PMS_P1;PMS_P2;Temp;Humidity;BMP_temperature;BMP_pressure;BME280_temperature;BME280_humidity;BME280_pressure;Samples;Min_cycle;Max_cycle;Signal;HPM_P1;HPM_P2
2023/05/20 00:02:31;;;;;;;7.10;4.15;;;;;;;9.92;100.00;102638.44;10380247;28;20472;-68
2023/05/20 00:07:33;;;;;;;11.00;4.57;;;;;;;9.87;100.00;102648.16;10407733;28;20044;-69
2023/05/20 00:12:36;;;;;;;9.23;4.57;;;;;;;9.86;100.00;102646.47;10415229;28;20044;-71
2023/05/20 00:17:37;;;;;;;7.55;4.07;;;;;;;9.80;100.00;102636.28;10416738;28;20033;-68
2023/05/20 00:22:37;;;;;;;8.45;4.40;;;;;;;9.72;100.00;102630.97;10398410;28;20055;-66
2023/05/20 00:27:38;;;;;;;11.00;5.05;;;;;;;9.79;100.00;102633.75;10381853;28;20037;-68
2023/05/20 00:32:38;;;;;;;7.20;3.42;;;;;;;9.78;100.00;102635.66;10383391;28;20505;-68
2023/05/20 00:37:39;;;;;;;6.93;3.60;;;;;;;9.76;100.00;102640.50;10415925;28;20107;-68
2023/05/20 00:42:40;;;;;;;10.48;5.00;;;;;;;9.73;100.00;102629.06;10412124;28;20060;-68
2023/05/20 00:47:40;;;;;;;10.63;4.72;;;;;;;9.66;100.00;102631.78;10414949;28;20044;-70
2023/05/20 00:52:43;;;;;;;10.25;4.25;;;;;;;9.62;100.00;102628.59;10379897;28;20068;-68
2023/05/20 00:57:44;;;;;;;8.82;4.20;;;;;;;9.61;100.00;102624.16;10415009;28;20121;-68
2023/05/20 01:02:45;;;;;;;10.95;3.97;;;;;;;9.59;100.00;102618.03;10377243;28;20060;-68
2023/05/20 01:07:45;;;;;;;9.93;4.60;;;;;;;9.60;100.00;102622.47;10416121;28;20037;-68
2023/05/20 01:12:48;;;;;;;6.93;4.25;;;;;;;9.68;100.00;102621.44;10380541;28;20044;-68
2023/05/20 01:17:51;;;;;;;6.15;3.65;;;;;;;9.79;100.00;102617.25;10396303;28;20098;-69
2023/05/20 01:22:52;;;;;;;6.85;3.80;;;;;;;9.89;100.00;102607.53;10370578;28;20054;-69
2023/05/20 01:27:54;;;;;;;8.32;3.80;;;;;;;9.98;100.00;102612.84;10397564;28;20041;-68
2023/05/20 01:32:58;;;;;;;8.63;3.10;;;;;;;10.03;100.00;102602.06;10381153;28;20067;-68
2023/05/20 01:37:59;;;;;;;8.95;3.72;;;;;;;10.04;100.00;102601.00;10412731;28;20613;-68
2023/05/20 01:43:00;;;;;;;9.32;3.90;;;;;;;10.03;100.00;102602.06;10410117;28;20409;-69
2023/05/20 01:48:01;;;;;;;6.25;3.95;;;;;;;10.02;100.00;102606.72;10411821;28;20052;-68
2023/05/20 01:53:02;;;;;;;8.15;3.75;;;;;;;10.04;100.00;102604.59;10394463;28;20048;-68
2023/05/20 01:58:02;;;;;;;8.27;3.08;;;;;;;9.95;100.00;102585.75;10414454;28;20030;-68
2023/05/20 02:03:03;;;;;;;10.27;4.93;;;;;;;10.11;100.00;102596.38;10414454;28;20041;-68
2023/05/20 02:08:03;;;;;;;6.90;3.85;;;;;;;10.12;100.00;102606.31;10412750;28;20420;-68
2023/05/20 02:13:04;;;;;;;5.35;3.38;;;;;;;10.07;100.00;102603.34;10395508;28;20033;-69
2023/05/20 02:18:04;;;;;;;8.57;3.53;;;;;;;10.00;100.00;102608.81;10412315;28;20065;-68
2023/05/20 02:23:07;;;;;;;4.47;3.13;;;;;;;9.86;100.00;102594.22;10408803;28;20037;-68
2023/05/20 02:28:09;;;;;;;8.82;3.70;;;;;;;9.80;100.00;102603.28;10414269;28;20052;-68
2023/05/20 02:33:12;;;;;;;8.05;3.33;;;;;;;9.76;100.00;102599.25;10410930;28;20402;-68
2023/05/20 02:38:13;;;;;;;5.78;3.60;;;;;;;9.73;100.00;102574.91;10394608;28;20046;-68
2023/05/20 02:43:13;;;;;;;5.50;2.90;;;;;;;9.88;100.00;102599.47;10411946;28;20042;-68
2023/05/20 02:48:14;;;;;;;5.18;2.95;;;;;;;9.89;100.00;102588.28;10411829;28;20033;-68
2023/05/20 02:53:14;;;;;;;5.18;3.17;;;;;;;9.94;100.00;102597.81;10393388;28;20033;-69
2023/05/20 02:58:16;;;;;;;7.10;2.88;;;;;;;9.83;100.00;102586.34;10412930;28;20034;-68
2023/05/20 03:03:16;;;;;;;5.28;2.70;;;;;;;9.92;100.00;102597.16;10378318;28;20398;-69
2023/05/20 03:08:18;;;;;;;6.55;3.75;;;;;;;10.00;100.00;102596.97;10376700;28;20034;-69
2023/05/20 03:13:19;;;;;;;6.85;2.75;;;;;;;10.02;100.00;102590.19;10410726;28;20038;-69
2023/05/20 03:18:19;;;;;;;5.90;3.25;;;;;;;10.00;100.00;102591.47;10411043;28;20037;-69
2023/05/20 03:23:20;;;;;;;8.35;2.95;;;;;;;10.01;100.00;102593.19;10377546;28;20052;-69
2023/05/20 03:28:20;;;;;;;6.25;2.92;;;;;;;9.96;100.00;102593.78;10402758;28;20056;-66
2023/05/20 03:33:24;;;;;;;5.05;3.00;;;;;;;9.93;100.00;102596.13;10416065;28;20089;-69
2023/05/20 03:38:26;;;;;;;5.03;1.98;;;;;;;9.95;100.00;102599.53;10417229;28;20056;-68
2023/05/20 03:43:27;;;;;;;4.22;2.45;;;;;;;9.99;100.00;102600.81;10417183;28;20417;-69
2023/05/20 03:48:28;;;;;;;2.88;1.63;;;;;;;10.04;100.00;102593.59;10412966;28;20037;-69
2023/05/20 03:53:28;;;;;;;3.35;1.70;;;;;;;10.11;100.00;102599.13;10415867;28;20501;-70
2023/05/20 03:58:30;;;;;;;5.15;2.03;;;;;;;10.19;100.00;102593.44;10418805;28;20049;-69
2023/05/20 04:03:30;;;;;;;5.25;2.30;;;;;;;10.15;100.00;102575.63;10417967;28;20041;-69
2023/05/20 04:08:31;;;;;;;5.72;1.60;;;;;;;10.19;100.00;102590.69;10398712;28;20041;-70
2023/05/20 04:13:32;;;;;;;4.00;1.67;;;;;;;10.12;100.00;102603.56;10415616;28;20448;-69
2023/05/20 04:18:32;;;;;;;4.35;2.00;;;;;;;10.08;100.00;102607.78;10416714;28;20037;-69
2023/05/20 04:23:33;;;;;;;6.10;1.95;;;;;;;9.95;100.00;102607.78;10417674;28;20041;-66
2023/05/20 04:28:33;;;;;;;4.03;1.60;;;;;;;9.84;100.00;102607.31;10400167;28;20042;-69
2023/05/20 04:33:37;;;;;;;2.95;1.30;;;;;;;9.86;100.00;102602.47;10416509;28;20037;-69
2023/05/20 04:38:38;;;;;;;5.10;1.20;;;;;;;9.81;100.00;102604.97;10394537;28;20041;-69
2023/05/20 04:43:39;;;;;;;2.60;1.25;;;;;;;9.35;100.00;102512.19;10392844;28;20048;-71
2023/05/20 04:48:40;;;;;;;3.58;0.90;;;;;;;10.02;100.00;102600.38;10397382;28;20064;-69
2023/05/20 04:53:40;;;;;;;4.45;0.95;;;;;;;10.11;100.00;102601.88;10411990;28;20037;-69
2023/05/20 04:58:41;;;;;;;1.73;1.10;;;;;;;10.19;100.00;102611.81;10371346;28;20033;-70
2023/05/20 05:03:41;;;;;;;2.08;0.88;;;;;;;10.20;100.00;102603.38;10414876;28;20452;-69
2023/05/20 05:08:42;;;;;;;3.10;1.10;;;;;;;10.15;100.00;102605.91;10415054;28;20037;-68
2023/05/20 05:13:42;;;;;;;2.45;0.82;;;;;;;10.14;100.00;102609.72;10393260;28;20044;-70
2023/05/20 05:18:43;;;;;;;2.15;1.15;;;;;;;10.07;100.00;102584.94;10397059;28;20153;-69
2023/05/20 05:23:44;;;;;;;5.35;1.40;;;;;;;10.15;100.00;102600.41;10397822;28;20101;-69
2023/05/20 05:28:44;;;;;;;2.20;0.93;;;;;;;10.19;100.00;102604.44;10381693;28;20107;-69
2023/05/20 05:33:45;;;;;;;4.57;1.90;;;;;;;10.21;100.00;102596.81;10396004;28;20414;-69
2023/05/20 05:38:45;;;;;;;2.20;0.70;;;;;;;10.32;100.00;102594.53;10412392;28;20033;-69
2023/05/20 05:43:46;;;;;;;4.13;0.95;;;;;;;10.49;100.00;102590.28;10411991;28;20037;-69
2023/05/20 05:48:49;;;;;;;3.35;1.10;;;;;;;10.74;100.00;102595.16;10412329;28;20037;-69
2023/05/20 05:53:49;;;;;;;1.95;1.00;;;;;;;11.03;100.00;102582.81;10414067;28;20046;-70
2023/05/20 05:58:50;;;;;;;2.53;1.10;;;;;;;11.34;100.00;102582.06;10397101;28;20033;-69
2023/05/20 06:03:50;;;;;;;4.47;1.10;;;;;;;11.67;100.00;102581.09;10413295;28;20046;-68
2023/05/20 06:08:51;;;;;;;2.10;0.90;;;;;;;11.87;100.00;102581.00;10395122;28;20045;-68
2023/05/20 06:13:51;;;;;;;1.60;0.88;;;;;;;12.10;100.00;102572.16;10393669;28;20068;-69
2023/05/20 06:18:55;;;;;;;1.58;0.85;;;;;;;12.31;100.00;102570.94;10412380;28;20071;-69
2023/05/20 06:23:56;;;;;;;3.03;1.20;;;;;;;12.59;100.00;102580.69;10414020;28;20254;-69
2023/05/20 06:28:56;;;;;;;4.97;1.00;;;;;;;12.50;100.00;102553.34;10413300;28;20046;-69
2023/05/20 06:33:57;;;;;;;4.00;0.98;;;;;;;12.75;100.00;102551.63;10378750;28;20044;-69
2023/05/20 06:38:57;;;;;;;2.42;0.90;;;;;;;13.13;100.00;102568.88;10411039;28;20042;-69
2023/05/20 06:43:58;;;;;;;1.88;0.98;;;;;;;13.43;100.00;102579.19;10393986;28;20034;-69
2023/05/20 06:48:58;;;;;;;2.33;1.25;;;;;;;13.75;100.00;102573.47;10412671;28;20073;-69
2023/05/20 06:53:59;;;;;;;4.05;1.02;;;;;;;13.92;100.00;102565.34;10413353;28;20045;-69
2023/05/20 06:58:59;;;;;;;2.75;0.85;;;;;;;14.10;100.00;102567.22;10395902;28;20542;-69
2023/05/20 07:04:00;;;;;;;1.58;0.77;;;;;;;13.82;100.00;102510.53;10402179;28;20045;-67
2023/05/20 07:09:00;;;;;;;3.45;0.95;;;;;;;14.31;100.00;102558.34;10418909;28;20049;-69
2023/05/20 07:14:01;;;;;;;2.53;1.27;;;;;;;14.61;100.00;102551.88;10402093;28;20087;-69
2023/05/20 07:19:02;;;;;;;0.90;0.70;;;;;;;14.67;100.00;102550.91;10415293;28;20064;-69
2023/05/20 07:24:03;;;;;;;2.67;1.00;;;;;;;14.95;100.00;102534.66;10419241;28;20496;-68
2023/05/20 07:29:03;;;;;;;1.77;1.00;;;;;;;15.17;100.00;102538.44;10384152;28;20060;-68
2023/05/20 07:34:04;;;;;;;3.65;0.85;;;;;;;15.40;100.00;102525.59;10400166;28;20037;-68
2023/05/20 07:39:05;;;;;;;3.50;0.75;;;;;;;15.28;100.00;102532.03;10416898;28;20045;-70
2023/05/20 07:44:07;;;;;;;2.17;1.20;;;;;;;15.44;100.00;102515.69;10416608;28;20068;-69
2023/05/20 07:49:07;;;;;;;2.15;1.10;;;;;;;15.52;100.00;102518.94;10413745;28;20052;-69
2023/05/20 07:54:08;;;;;;;3.15;0.90;;;;;;;15.61;100.00;102516.59;10418065;28;20048;-68
2023/05/20 07:59:08;;;;;;;3.28;1.10;;;;;;;15.76;100.00;102507.72;10416875;28;20080;-68
2023/05/20 08:04:09;;;;;;;2.17;1.13;;;;;;;15.76;100.00;102524.41;10415357;28;20053;-69
2023/05/20 08:09:10;;;;;;;1.42;0.85;;;;;;;15.86;100.00;102507.91;10414869;28;20050;-69
2023/05/20 08:14:10;;;;;;;1.83;1.33;;;;;;;16.27;100.00;102511.41;10417293;28;20042;-69
2023/05/20 08:19:11;;;;;;;2.83;1.23;;;;;;;16.20;100.00;102507.94;10400091;28;20041;-68
2023/05/20 08:24:11;;;;;;;2.67;1.55;;;;;;;16.25;100.00;102501.63;10416606;28;20152;-69
2023/05/20 08:29:12;;;;;;;3.67;1.27;;;;;;;16.42;100.00;102498.84;10415059;28;20551;-69
2023/05/20 08:34:12;;;;;;;3.28;1.70;;;;;;;16.54;100.00;102502.38;10411678;28;20504;-69
2023/05/20 08:39:13;;;;;;;3.25;1.75;;;;;;;16.60;100.00;102489.38;10414363;28;20042;-69
2023/05/20 08:44:13;;;;;;;2.30;1.05;;;;;;;16.91;100.00;102479.56;10413714;28;20072;-69
2023/05/20 08:49:13;;;;;;;2.33;1.30;;;;;;;17.20;100.00;102479.34;10374010;28;20037;-69
2023/05/20 08:54:15;;;;;;;4.22;1.35;;;;;;;17.37;100.00;102471.78;10395096;28;20049;-69
2023/05/20 08:59:16;;;;;;;2.30;1.40;;;;;;;17.51;100.00;102461.06;10381312;28;20430;-69
2023/05/20 09:04:17;;;;;;;3.53;1.48;;;;;;;17.72;100.00;102464.88;10413487;28;20057;-69
2023/05/20 09:09:18;;;;;;;3.50;1.20;;;;;;;17.99;100.00;102450.13;10395920;28;20295;-69
2023/05/20 09:14:18;;;;;;;2.00;1.20;;;;;;;18.21;100.00;102448.06;10396395;28;20053;-68
2023/05/20 09:19:21;;;;;;;1.92;0.90;;;;;;;18.55;100.00;102450.50;10411128;28;20033;-68
2023/05/20 09:24:25;;;;;;;2.08;1.13;;;;;;;18.72;100.00;102447.53;10396770;28;20033;-69
2023/05/20 09:29:25;;;;;;;3.03;1.27;;;;;;;18.92;100.00;102442.06;10396519;28;20517;-68
2023/05/20 09:34:26;;;;;;;2.75;1.40;;;;;;;19.07;100.00;102420.91;10414147;28;20341;-69
2023/05/20 09:39:29;;;;;;;2.67;1.35;;;;;;;19.26;100.00;102421.22;10394483;28;20037;-69
2023/05/20 09:44:30;;;;;;;2.08;1.33;;;;;;;19.12;100.00;102416.19;10395770;28;20084;-69
2023/05/20 09:49:31;;;;;;;7.72;1.90;;;;;;;19.23;100.00;102402.25;10413910;28;20029;-68
2023/05/20 09:54:32;;;;;;;2.00;1.60;;;;;;;19.67;98.12;102412.91;10379568;28;20037;-69
2023/05/20 09:59:32;;;;;;;2.80;1.23;;;;;;;20.09;96.06;102403.41;10394931;28;20041;-69
2023/05/20 10:04:33;;;;;;;3.80;1.88;;;;;;;19.89;95.02;102398.72;10377293;28;20477;-69
2023/05/20 10:09:52;;;;;;;3.60;1.52;;;;;;;19.97;93.51;102384.16;10379123;28;20059;-69
2023/05/20 10:15:05;;;;;;;2.08;1.60;;;;;;;20.65;94.80;102372.56;10414546;28;20038;-68
2023/05/20 10:20:08;;;;;;;3.90;1.38;;;;;;;21.16;88.28;102366.66;10397758;28;20049;-68
2023/05/20 10:25:11;;;;;;;2.25;1.20;;;;;;;21.43;84.89;102347.75;10413054;28;20038;-69
2023/05/20 10:30:16;;;;;;;3.03;1.20;;;;;;;21.72;84.97;102351.41;10393774;28;20043;-69
2023/05/20 10:35:26;;;;;;;2.20;1.17;;;;;;;21.85;84.25;102333.06;10377170;28;20057;-69
2023/05/20 10:40:26;;;;;;;2.35;1.30;;;;;;;21.85;81.33;102332.22;10391160;28;20042;-68
2023/05/20 10:45:28;;;;;;;3.30;1.10;;;;;;;22.14;81.44;102337.81;10412426;28;20072;-68
2023/05/20 10:50:33;;;;;;;4.40;1.52;;;;;;;22.25;79.16;102322.56;10394751;28;20046;-68
2023/05/20 10:55:37;;;;;;;2.92;1.00;;;;;;;21.79;78.25;102323.03;10394838;28;20053;-69
2023/05/20 11:00:37;;;;;;;3.97;1.52;;;;;;;21.16;78.65;102302.25;10412001;28;20053;-68
2023/05/20 11:05:38;;;;;;;3.42;1.40;;;;;;;20.91;79.54;102313.63;10409081;28;20429;-69
2023/05/20 11:10:40;;;;;;;4.15;1.35;;;;;;;21.53;80.75;102312.06;10412248;28;20037;-69
2023/05/20 11:15:40;;;;;;;3.85;1.13;;;;;;;22.26;78.87;102299.00;10394677;28;20034;-69
2023/05/20 11:20:41;;;;;;;2.28;1.23;;;;;;;22.58;76.86;102277.00;10391367;28;20453;-69
2023/05/20 11:25:41;;;;;;;4.82;1.42;;;;;;;22.64;76.37;102290.66;10411538;28;20433;-71
2023/05/20 11:30:42;;;;;;;2.38;1.05;;;;;;;22.77;74.33;102264.59;10409974;28;20100;-71
2023/05/20 11:35:48;;;;;;;3.92;1.20;;;;;;;22.18;73.32;102274.38;10375921;28;20038;-71
2023/05/20 11:40:52;;;;;;;2.57;1.20;;;;;;;22.22;73.37;102269.00;10409786;28;20041;-70
2023/05/20 11:45:57;;;;;;;4.55;1.20;;;;;;;23.05;74.56;102270.41;10395085;28;20110;-71
2023/05/20 11:50:58;;;;;;;4.00;1.10;;;;;;;23.62;71.76;102244.13;10401583;28;20041;-70
2023/05/20 11:55:59;;;;;;;3.47;1.23;;;;;;;24.32;70.74;102257.09;10400423;28;20068;-72
2023/05/20 12:01:00;;;;;;;6.80;1.50;;;;;;;23.97;70.44;102253.88;10381897;28;20051;-71
2023/05/20 12:06:01;;;;;;;1.77;1.02;;;;;;;23.03;69.75;102238.97;10416796;28;20409;-71
2023/05/20 12:11:02;;;;;;;3.28;1.10;;;;;;;21.88;71.01;102237.16;10384043;28;20041;-71
2023/05/20 12:16:04;;;;;;;4.43;1.00;;;;;;;21.78;73.56;102242.88;10383764;28;20060;-71
2023/05/20 12:21:05;;;;;;;8.73;1.33;;;;;;;23.38;73.36;102250.75;10416321;28;20057;-71
2023/05/20 12:26:05;;;;;;;2.42;1.30;;;;;;;24.32;69.74;102226.94;10416855;28;20035;-71
2023/05/20 12:31:06;;;;;;;2.90;1.20;;;;;;;23.20;69.18;102210.31;10416977;28;20033;-71
2023/05/20 12:36:07;;;;;;;3.08;0.98;;;;;;;22.56;72.10;102226.75;10417196;28;20038;-71
2023/05/20 12:41:07;;;;;;;4.22;1.50;;;;;;;22.87;69.83;102201.03;10383043;28;20042;-70
2023/05/20 12:46:08;;;;;;;3.08;1.25;;;;;;;23.13;70.97;102196.69;10414996;28;20117;-71
2023/05/20 12:51:08;;;;;;;3.75;1.45;;;;;;;22.51;70.92;102209.97;10397193;28;20033;-71
2023/05/20 12:56:09;;;;;;;2.15;1.48;;;;;;;22.33;71.63;102204.06;10414678;28;20654;-71
2023/05/20 13:01:10;;;;;;;4.07;1.33;;;;;;;22.87;69.43;102186.97;10381786;28;20055;-71
2023/05/20 13:06:10;;;;;;;4.32;1.40;;;;;;;22.51;71.04;102198.75;10416007;28;20087;-71
2023/05/20 13:11:11;;;;;;;4.43;1.40;;;;;;;22.22;73.02;102173.63;10397521;28;20532;-72
2023/05/20 13:16:11;;;;;;;9.60;1.80;;;;;;;23.33;70.53;102186.19;10381170;28;20068;-72
2023/05/20 13:21:12;;;;;;;3.30;1.08;;;;;;;22.93;69.82;102172.53;10414883;28;20518;-70
2023/05/20 13:26:12;;;;;;;8.27;1.10;;;;;;;22.22;70.69;102182.91;10396822;28;20044;-71
2023/05/20 13:31:13;;;;;;;4.35;1.50;;;;;;;22.88;69.86;102168.97;10413884;28;20084;-71
2023/05/20 13:36:13;;;;;;;2.97;1.40;;;;;;;22.80;65.36;102144.41;10396300;28;20041;-71
2023/05/20 13:41:14;;;;;;;4.00;1.20;;;;;;;22.55;67.76;102154.91;10378431;28;20033;-70
2023/05/20 13:46:15;;;;;;;3.03;0.82;;;;;;;23.60;68.55;102131.97;10412171;28;20049;-72
2023/05/20 13:51:16;;;;;;;3.60;1.20;;;;;;;24.51;66.42;102147.19;10378903;28;20042;-68
2023/05/20 13:56:16;;;;;;;3.63;1.30;;;;;;;23.24;67.37;102143.94;10413126;28;20057;-71
2023/05/20 14:01:17;;;;;;;2.15;1.10;;;;;;;22.35;68.81;102144.84;10412094;28;20041;-70
2023/05/20 14:06:17;;;;;;;3.05;1.45;;;;;;;21.62;70.76;102132.06;10406926;28;20041;-71
2023/05/20 14:11:19;;;;;;;3.70;1.38;;;;;;;21.63;72.09;102144.97;10411005;28;20091;-70
2023/05/20 14:16:19;;;;;;;1.58;0.85;;;;;;;21.17;72.37;102105.09;10412086;28;20034;-72
2023/05/20 14:21:20;;;;;;;4.25;1.10;;;;;;;21.14;72.56;102142.06;10393639;28;20397;-75
2023/05/20 14:26:20;;;;;;;2.92;1.17;;;;;;;21.77;72.55;102131.88;10356976;28;20493;-72
2023/05/20 14:31:21;;;;;;;4.03;1.77;;;;;;;21.91;72.31;102130.03;10393870;28;20874;-72
2023/05/20 14:36:21;;;;;;;5.28;0.88;;;;;;;21.85;71.93;102114.41;10412291;28;20033;-71
2023/05/20 14:41:21;;;;;;;4.38;1.20;;;;;;;21.22;72.84;102128.56;10404934;28;20732;-70
2023/05/20 14:46:22;;;;;;;2.28;1.08;;;;;;;20.72;74.43;102126.78;10393178;28;20052;-69
2023/05/20 14:51:22;;;;;;;5.20;1.10;;;;;;;20.56;74.81;102119.63;10355791;28;20041;-71
2023/05/20 14:56:23;;;;;;;3.95;0.90;;;;;;;21.13;75.83;102120.00;10377302;28;20082;-71
2023/05/20 15:01:23;;;;;;;3.10;0.85;;;;;;;21.20;73.44;102119.63;10393490;28;20513;-72
2023/05/20 15:06:24;;;;;;;2.70;1.38;;;;;;;21.07;73.95;102116.41;10383341;28;20057;-72
2023/05/20 15:11:25;;;;;;;4.70;1.33;;;;;;;20.90;76.01;102130.84;10394051;28;20085;-71
2023/05/20 15:16:25;;;;;;;1.77;1.10;;;;;;;20.69;77.39;102127.38;10393497;28;20041;-71
2023/05/20 15:21:26;;;;;;;2.13;1.27;;;;;;;20.54;78.14;102133.06;10413840;28;20060;-72
2023/05/20 15:26:26;;;;;;;2.00;1.17;;;;;;;19.79;77.50;102055.84;10400198;28;20416;-71
2023/05/20 15:31:27;;;;;;;5.43;1.10;;;;;;;19.82;77.32;102132.66;10418054;28;20033;-71
2023/05/20 15:36:27;;;;;;;3.47;1.17;;;;;;;19.59;79.46;102132.16;10419090;28;20041;-71
2023/05/20 15:41:30;;;;;;;1.77;0.90;;;;;;;19.38;79.71;102106.25;10400593;28;20053;-71
2023/05/20 15:46:31;;;;;;;2.45;1.33;;;;;;;19.60;80.76;102119.03;10400201;28;20056;-72
2023/05/20 15:51:31;;;;;;;1.38;1.05;;;;;;;19.48;79.23;102114.59;10366686;28;20045;-71
2023/05/20 15:56:32;;;;;;;4.13;1.15;;;;;;;19.21;81.99;102109.38;10383045;28;20036;-71
2023/05/20 16:01:32;;;;;;;1.77;1.08;;;;;;;19.04;81.50;102115.28;10399304;28;20029;-71
2023/05/20 16:06:33;;;;;;;3.40;1.60;;;;;;;18.74;83.33;102116.09;10399958;28;20034;-71
2023/05/20 16:11:34;;;;;;;2.22;1.05;;;;;;;18.44;83.33;102100.19;10399260;28;20033;-71
2023/05/20 16:16:35;;;;;;;1.38;0.90;;;;;;;18.32;85.27;102103.25;10382187;28;20033;-71
2023/05/20 16:21:35;;;;;;;2.22;0.90;;;;;;;18.22;86.02;102104.06;10349656;28;20042;-74
2023/05/20 16:26:36;;;;;;;3.15;1.13;;;;;;;17.94;85.71;102111.81;10381512;28;20218;-71
2023/05/20 16:31:36;;;;;;;1.70;0.95;;;;;;;17.76;87.92;102095.56;10365144;28;20035;-71
2023/05/20 16:36:37;;;;;;;4.60;1.05;;;;;;;17.77;88.87;102101.97;10383365;28;20041;-71
2023/05/20 16:41:37;;;;;;;2.92;1.42;;;;;;;17.85;90.96;102105.09;10415302;28;20102;-71
2023/05/20 16:46:38;;;;;;;5.38;1.63;;;;;;;17.72;89.94;102074.94;10397358;28;20180;-71
2023/05/20 16:51:38;;;;;;;1.42;1.08;;;;;;;17.86;88.19;102095.63;10394826;28;20044;-74
2023/05/20 16:56:39;;;;;;;5.22;1.40;;;;;;;17.89;90.37;102097.03;10396410;28;20029;-72
2023/05/20 17:01:39;;;;;;;2.30;1.30;;;;;;;17.85;89.58;102102.31;10380771;28;20034;-71
2023/05/20 17:06:40;;;;;;;7.10;1.20;;;;;;;18.04;92.41;102102.63;10397686;28;20092;-71
2023/05/20 17:11:40;;;;;;;3.10;1.50;;;;;;;18.08;91.48;102114.91;10377403;28;20040;-72
2023/05/20 17:16:41;;;;;;;3.28;1.13;;;;;;;17.89;92.90;102116.53;10396344;28;20048;-71
2023/05/20 17:21:43;;;;;;;1.90;1.10;;;;;;;17.85;93.99;102110.66;10414017;28;20056;-72
2023/05/20 17:26:43;;;;;;;2.45;1.20;;;;;;;17.69;93.86;102095.84;10413827;28;20033;-70
2023/05/20 17:31:44;;;;;;;2.65;1.38;;;;;;;17.72;94.25;102111.16;10363702;28;20041;-68
2023/05/20 17:36:44;;;;;;;3.25;1.58;;;;;;;17.70;96.94;102127.31;10387311;28;20123;-69
2023/05/20 17:41:45;;;;;;;1.98;1.30;;;;;;;17.67;96.38;102114.75;10361039;28;20084;-70
2023/05/20 17:46:45;;;;;;;2.65;1.52;;;;;;;17.47;97.57;102121.06;10394498;28;20087;-70
2023/05/20 17:51:46;;;;;;;3.63;1.63;;;;;;;17.23;99.06;102115.06;10364251;28;20503;-70
2023/05/20 17:56:47;;;;;;;3.35;1.70;;;;;;;17.13;99.68;102117.78;10376872;28;20053;-68
2023/05/20 18:01:48;;;;;;;3.70;1.70;;;;;;;17.04;100.00;102113.84;10389753;28;20387;-68
2023/05/20 18:06:48;;;;;;;2.15;1.10;;;;;;;16.97;100.00;102125.22;10378725;28;20057;-66
2023/05/20 18:11:49;;;;;;;3.65;1.40;;;;;;;16.93;100.00;102127.69;10360871;28;20056;-70
2023/05/20 18:16:49;;;;;;;4.60;1.38;;;;;;;16.85;100.00;102130.13;10389638;28;20042;-70
2023/05/20 18:21:50;;;;;;;1.95;1.23;;;;;;;16.78;100.00;102135.03;10358057;28;20068;-69
2023/05/20 18:26:51;;;;;;;6.85;1.65;;;;;;;16.63;100.00;102130.19;10394129;28;20107;-68
2023/05/20 18:31:51;;;;;;;3.92;1.45;;;;;;;16.57;100.00;102143.19;10393959;28;20460;-69
2023/05/20 18:36:52;;;;;;;4.15;2.45;;;;;;;16.43;100.00;102144.72;10378870;28;20038;-70
2023/05/20 18:41:52;;;;;;;3.25;1.60;;;;;;;15.94;100.00;102090.88;10410566;28;20049;-70
2023/05/20 18:46:53;;;;;;;4.30;1.90;;;;;;;16.18;100.00;102146.13;10392664;28;20057;-68
2023/05/20 18:51:53;;;;;;;4.30;1.70;;;;;;;16.11;100.00;102149.13;10393008;28;20044;-66
2023/05/20 18:56:54;;;;;;;2.85;1.42;;;;;;;15.98;100.00;102132.88;10382497;28;20037;-70
2023/05/20 19:01:55;;;;;;;3.78;1.73;;;;;;;15.94;100.00;102142.81;10385151;28;20029;-69
2023/05/20 19:06:55;;;;;;;4.20;1.65;;;;;;;15.75;100.00;102125.66;10419927;28;20033;-69
2023/05/20 19:11:57;;;;;;;5.30;2.45;;;;;;;15.69;100.00;102140.53;10367633;28;20045;-69
2023/05/20 19:16:59;;;;;;;3.72;2.00;;;;;;;15.53;100.00;102137.53;10383066;28;20458;-70
2023/05/20 19:22:00;;;;;;;4.80;2.33;;;;;;;15.28;100.00;102135.25;10417752;28;20037;-70
2023/05/20 19:27:01;;;;;;;4.90;1.80;;;;;;;15.20;100.00;102159.81;10371581;28;20042;-70
2023/05/20 19:32:02;;;;;;;3.92;2.00;;;;;;;15.01;100.00;102171.19;10415879;28;20470;-70
2023/05/20 19:37:02;;;;;;;4.97;3.03;;;;;;;14.73;100.00;102172.09;10395859;28;20053;-70
2023/05/20 19:42:03;;;;;;;4.10;1.77;;;;;;;14.45;100.00;102165.47;10416694;28;20046;-70
2023/05/20 19:47:05;;;;;;;4.68;2.30;;;;;;;14.40;100.00;102179.22;10416080;28;20038;-71
2023/05/20 19:52:06;;;;;;;4.80;2.17;;;;;;;14.37;100.00;102179.75;10399367;28;20042;-69
2023/05/20 19:57:06;;;;;;;6.93;2.67;;;;;;;14.38;100.00;102181.41;10382795;28;20049;-69
2023/05/20 20:02:07;;;;;;;4.55;2.20;;;;;;;14.35;100.00;102172.78;10398388;28;20034;-70
2023/05/20 20:07:08;;;;;;;5.18;2.50;;;;;;;14.26;100.00;102170.41;10379859;28;20033;-70
2023/05/20 20:12:08;;;;;;;6.97;2.85;;;;;;;14.16;100.00;102181.28;10412880;28;20034;-70
2023/05/20 20:17:12;;;;;;;5.13;2.70;;;;;;;14.13;100.00;102179.81;10416613;28;20030;-71
2023/05/20 20:22:13;;;;;;;6.13;2.35;;;;;;;13.97;100.00;102163.16;10415959;28;20097;-70
2023/05/20 20:27:13;;;;;;;5.38;2.30;;;;;;;13.90;100.00;102180.75;10368314;28;20041;-70
2023/05/20 20:32:14;;;;;;;5.78;2.95;;;;;;;13.80;100.00;102174.16;10415982;28;20041;-66
2023/05/20 20:37:16;;;;;;;6.72;3.13;;;;;;;13.69;100.00;102173.09;10388802;28;20110;-70
2023/05/20 20:42:21;;;;;;;7.30;3.00;;;;;;;13.52;100.00;102173.84;10357213;28;20180;-70
2023/05/20 20:47:27;;;;;;;3.72;2.22;;;;;;;13.40;100.00;102174.94;10376957;28;20072;-69
2023/05/20 20:52:28;;;;;;;5.45;2.60;;;;;;;13.30;100.00;102167.25;10393544;28;20041;-69
2023/05/20 20:57:30;;;;;;;6.30;2.58;;;;;;;13.26;100.00;102166.00;10414392;28;20494;-70
2023/05/20 21:02:31;;;;;;;4.35;2.50;;;;;;;13.35;100.00;102169.28;10395326;28;20038;-70
2023/05/20 21:07:31;;;;;;;3.47;2.40;;;;;;;13.48;100.00;102160.75;10396091;28;20109;-70
2023/05/20 21:12:33;;;;;;;6.35;2.65;;;;;;;13.55;100.00;102158.66;10396452;28;20038;-71
2023/05/20 21:17:33;;;;;;;5.72;2.33;;;;;;;13.62;100.00;102162.16;10394321;28;20045;-71
2023/05/20 21:22:34;;;;;;;4.75;2.80;;;;;;;13.59;100.00;102139.66;10394332;28;20044;-71
2023/05/20 21:27:34;;;;;;;6.03;2.13;;;;;;;13.78;100.00;102154.19;10380365;28;20046;-70
2023/05/20 21:32:35;;;;;;;3.92;2.40;;;;;;;13.79;100.00;102137.34;10413914;28;20045;-71
2023/05/20 21:37:35;;;;;;;3.25;2.20;;;;;;;13.71;100.00;102137.72;10412711;28;20048;-71
2023/05/20 21:42:42;;;;;;;3.83;2.17;;;;;;;13.45;100.00;102142.69;10484353;28;20381;-70
2023/05/20 21:47:45;;;;;;;6.82;2.70;;;;;;;13.24;100.00;102137.75;10508649;28;20033;-71
2023/05/20 21:52:45;;;;;;;4.75;2.95;;;;;;;13.07;100.00;102132.94;10493549;28;20473;-70
2023/05/20 21:57:46;;;;;;;7.85;3.58;;;;;;;12.98;100.00;102139.94;10492574;28;20045;-70
2023/05/20 22:02:47;;;;;;;4.45;2.92;;;;;;;12.96;100.00;102136.56;10513923;28;20493;-70
2023/05/20 22:07:49;;;;;;;5.88;3.08;;;;;;;13.00;100.00;102136.91;10491835;28;20087;-70
2023/05/20 22:12:50;;;;;;;8.38;2.65;;;;;;;13.10;100.00;102139.91;10493988;28;20088;-69
2023/05/20 22:17:50;;;;;;;5.38;3.13;;;;;;;13.17;100.00;102137.00;10490460;28;20061;-70
2023/05/20 22:22:51;;;;;;;4.68;2.50;;;;;;;13.20;100.00;102137.38;10469784;28;20037;-70
2023/05/20 22:27:52;;;;;;;6.68;3.22;;;;;;;13.17;100.00;102132.34;10484821;28;20479;-70
2023/05/20 22:32:52;;;;;;;5.13;3.78;;;;;;;13.17;100.00;102134.25;10490612;28;20044;-70
2023/05/20 22:37:53;;;;;;;6.97;2.90;;;;;;;13.20;100.00;102125.50;10492477;28;20059;-71
2023/05/20 22:42:54;;;;;;;5.13;2.85;;;;;;;13.20;100.00;102108.91;10483748;28;20040;-70
2023/05/20 22:47:54;;;;;;;7.68;3.08;;;;;;;13.19;100.00;102107.19;10492252;28;20179;-71
2023/05/20 22:52:55;;;;;;;4.93;2.83;;;;;;;13.24;100.00;102099.03;10500813;28;20075;-70